createdAt,value
2023-03-23T15:58:20.036Z,100326.13
2023-03-23T16:00:51.282Z,100314.16
2023-03-23T16:03:43.607Z,100310.53
2023-03-23T16:06:24.566Z,100323.13
2023-03-23T16:08:56.002Z,100318.47
2023-03-23T16:11:31.498Z,100311.56
2023-03-23T16:13:58.843Z,100317.66
2023-03-23T16:16:33.620Z,100332.47
2023-03-23T16:19:00.118Z,100328.22
2023-03-23T16:21:26.824Z,100311.78
2023-03-23T16:24:06.432Z,100319.66
2023-03-23T16:26:55.861Z,100321.09
2023-03-23T16:29:46.707Z,100319.06
2023-03-23T16:32:12.761Z,100314.56
2023-03-23T16:34:43.240Z,100331.44
2023-03-23T16:37:12.401Z,100333.47
2023-03-23T16:39:43.503Z,100332.25
2023-03-23T16:42:12.718Z,100353.97
2023-03-23T16:44:39.046Z,100347.66
2023-03-23T16:47:10.054Z,100349.47
2023-03-23T16:49:39.442Z,100338.53
2023-03-23T16:52:28.593Z,100324.31
2023-03-23T16:54:54.378Z,100324.91
2023-03-23T16:57:20.848Z,100316.38
2023-03-23T16:59:47.212Z,100320.66
2023-03-23T17:02:27.077Z,100317.41
2023-03-23T17:04:57.312Z,100316.00
2023-03-23T17:07:27.221Z,100322.25
2023-03-23T17:09:53.904Z,100332.81
2023-03-23T17:12:23.938Z,100334.03
2023-03-23T17:14:50.430Z,100334.44
2023-03-23T17:17:16.887Z,100334.84
2023-03-23T17:19:49.195Z,100328.13
2023-03-23T17:22:20.372Z,100325.25
2023-03-23T17:24:51.808Z,100326.69
2023-03-23T17:27:19.987Z,100318.53
2023-03-23T17:32:31.309Z,100323.00
2023-03-23T17:35:00.712Z,100322.78
2023-03-23T17:37:27.099Z,100316.88
2023-03-23T17:39:56.207Z,100317.09
2023-03-23T17:42:25.642Z,100316.06
2023-03-23T17:44:52.015Z,100306.50
2023-03-23T17:47:22.554Z,100305.69
2023-03-23T17:49:51.789Z,100301.44
2023-03-23T17:52:18.635Z,100301.44
2023-03-23T17:54:51.862Z,100294.72
2023-03-23T17:57:18.360Z,100303.03
2023-03-23T18:02:26.143Z,100299.34
2023-03-23T18:04:53.637Z,100300.53
2023-03-23T18:07:23.459Z,100300.13
2023-03-23T18:09:53.085Z,100293.59
2023-03-23T18:12:22.264Z,100285.25
2023-03-23T18:14:48.766Z,100288.28
2023-03-23T18:17:19.321Z,100280.97
2023-03-23T18:19:48.519Z,100288.06
2023-03-23T18:22:22.244Z,100287.25
2023-03-23T18:24:51.824Z,100293.13
2023-03-23T18:27:24.251Z,100285.59
2023-03-23T18:29:53.398Z,100287.41
2023-03-23T18:32:21.080Z,100286.78
2023-03-23T18:34:49.402Z,100276.88
2023-03-23T18:37:16.467Z,100278.50
2023-03-23T18:39:42.842Z,100276.06
2023-03-23T18:42:22.240Z,100271.00
2023-03-23T18:44:52.251Z,100273.81
2023-03-23T18:47:21.704Z,100274.00
2023-03-23T18:49:55.445Z,100269.13
2023-03-23T18:52:30.703Z,100266.06
2023-03-23T18:54:59.060Z,100262.22
2023-03-23T18:57:28.521Z,100262.81
2023-03-23T18:59:54.894Z,100255.47
2023-03-23T19:02:24.597Z,100249.97
2023-03-23T19:04:54.151Z,100253.00
2023-03-23T19:07:23.103Z,100256.41
2023-03-23T19:09:49.540Z,100246.47
2023-03-23T19:12:15.976Z,100242.75
2023-03-23T19:14:42.744Z,100242.31
2023-03-23T19:17:12.265Z,100238.47
2023-03-23T19:19:43.201Z,100232.97
2023-03-23T19:22:11.072Z,100239.44
2023-03-23T19:24:38.523Z,100227.44
2023-03-23T19:27:09.451Z,100230.28
2023-03-23T19:29:38.373Z,100215.69
2023-03-23T19:32:07.611Z,100222.75
2023-03-23T19:34:34.040Z,100219.50
2023-03-23T19:37:11.352Z,100214.25
2023-03-23T19:39:42.943Z,100208.38
2023-03-23T19:42:16.745Z,100201.66
2023-03-23T19:44:45.680Z,100205.50
2023-03-23T19:47:36.215Z,100204.28
2023-03-23T19:50:02.691Z,100194.94
2023-03-23T19:52:32.912Z,100197.75
2023-03-23T19:54:59.943Z,100198.13
2023-03-23T19:57:26.866Z,100193.88
2023-03-23T19:59:58.378Z,100195.50
2023-03-23T20:02:27.225Z,100182.34
2023-03-23T20:05:10.712Z,100184.53
2023-03-23T20:10:27.539Z,100184.75
2023-03-23T20:12:54.029Z,100186.75
2023-03-23T20:15:32.081Z,100179.22
2023-03-23T20:18:01.259Z,100187.31
2023-03-23T20:20:28.832Z,100189.34
2023-03-23T20:22:57.802Z,100188.50
2023-03-23T20:25:29.629Z,100180.00
2023-03-23T20:27:59.558Z,100179.38
2023-03-23T20:30:29.069Z,100172.88
2023-03-23T20:33:01.574Z,100171.88
2023-03-23T20:35:30.450Z,100174.69
2023-03-23T20:38:02.658Z,100163.56
2023-03-23T20:40:29.475Z,100171.78
2023-03-23T20:42:59.995Z,100165.06
2023-03-23T20:45:29.240Z,100150.69
2023-03-23T20:48:01.989Z,100154.94
2023-03-23T20:50:31.564Z,100144.44
2023-03-23T20:52:58.292Z,100145.25
2023-03-23T20:55:27.709Z,100141.81
2023-03-23T20:57:54.158Z,100141.19
2023-03-23T21:00:20.590Z,100134.31
2023-03-23T21:02:57.485Z,100136.09
2023-03-23T21:05:24.394Z,100132.69
2023-03-23T21:07:51.264Z,100134.50
2023-03-23T21:10:20.190Z,100125.19
2023-03-23T21:12:46.511Z,100110.41
2023-03-23T21:15:17.968Z,100118.09
2023-03-23T21:17:48.391Z,100115.66
2023-03-23T21:20:15.255Z,100110.22
2023-03-23T21:22:43.280Z,100109.22
2023-03-23T21:25:13.705Z,100095.44
2023-03-23T21:27:42.852Z,100082.50
2023-03-23T21:30:12.403Z,100082.69
2023-03-23T21:32:38.826Z,100080.88
2023-03-23T21:35:08.891Z,100061.88
2023-03-23T21:37:38.964Z,100068.94
2023-03-23T21:40:20.949Z,100065.50
2023-03-23T21:42:52.643Z,100061.88
2023-03-23T21:45:21.927Z,100068.13
2023-03-23T21:47:52.783Z,100043.66
2023-03-23T21:50:22.687Z,100049.94
2023-03-23T21:52:50.854Z,100044.88
2023-03-23T21:55:29.521Z,100041.41
2023-03-23T21:57:59.086Z,100031.91
2023-03-23T22:00:29.705Z,100036.56
2023-03-23T22:02:56.545Z,100036.34
2023-03-23T22:05:25.996Z,100032.09
2023-03-23T22:07:55.390Z,100019.78
2023-03-23T22:10:24.773Z,100032.09
2023-03-23T22:12:55.595Z,100027.66
2023-03-23T22:15:27.672Z,100020.78
2023-03-23T22:17:57.203Z,100023.41
2023-03-23T22:20:23.621Z,100010.84
2023-03-23T22:22:54.618Z,100007.59
2023-03-23T22:25:24.203Z,100008.22
2023-03-23T22:27:59.287Z,99997.91
2023-03-23T22:30:29.624Z,100004.16
2023-03-23T22:32:59.698Z,100005.97
2023-03-23T22:35:29.410Z,99995.03
2023-03-23T23:23:08.910Z,99928.81
2023-03-23T23:25:43.830Z,99915.69
2023-03-23T23:28:10.478Z,99914.03
2023-03-23T23:30:37.427Z,99914.88
2023-03-23T23:33:07.622Z,99897.69
2023-03-23T23:35:36.855Z,99890.59
2023-03-23T23:38:05.907Z,99901.09
2023-03-23T23:40:36.894Z,99895.84
2023-03-23T23:43:04.073Z,99886.16
2023-03-23T23:45:34.849Z,99885.16
2023-03-23T23:48:01.257Z,99880.09
2023-03-23T23:50:27.958Z,99882.72
2023-03-23T23:53:09.694Z,99876.50
2023-03-23T23:55:36.770Z,99855.69
2023-03-23T23:58:05.343Z,99861.72
